Terminal Aerodrome Forecast
Issued by NWS Sterling, VA

Current Version | Previous Version | Graphics & Text | Print | Product List | Glossary On
Versions: 1 2 3 4 5 6 7 8 9 10 11 12 13 14
025
FTUS41 KLWX 271126
TAFMRB
TAF
KMRB 271126Z 2712/2812 35004KT P6SM BKN050
     FM272000 25004KT P6SM BKN050
     FM280200 VRB03KT P6SM FEW060 SCT100
     FM280600 00000KT P6SM BKN100=

USA.gov is the U.S. government's official web portal to all federal, state and local government web resources and services.